createdAt,value
2023-02-15T00:00:24.251Z,50399.56
2023-02-15T00:03:11.503Z,50392.36
2023-02-15T00:05:39.901Z,50385.16
2023-02-15T00:08:08.220Z,50376.36
2023-02-15T00:10:36.367Z,50383.57
2023-02-15T00:13:05.683Z,50389.96
2023-02-15T00:15:33.889Z,50391.16
2023-02-15T00:18:01.950Z,50380.76
2023-02-15T00:20:30.262Z,50397.55
2023-02-15T00:22:58.699Z,50395.16
2023-02-15T00:25:26.960Z,50385.16
2023-02-15T00:27:55.110Z,50393.56
2023-02-15T00:30:23.393Z,50381.96
2023-02-15T00:32:51.584Z,50388.76
2023-02-15T00:35:19.776Z,50361.18
2023-02-15T00:37:48.900Z,50388.76
2023-02-15T00:40:17.173Z,50380.77
2023-02-15T00:42:45.366Z,50381.96
2023-02-15T00:45:13.719Z,50397.56
2023-02-15T00:47:41.909Z,50387.56
2023-02-15T00:50:10.496Z,50390.36
2023-02-15T00:52:40.050Z,50379.57
2023-02-15T00:55:08.368Z,50373.96
2023-02-15T00:57:36.589Z,50375.17
2023-02-15T01:00:05.330Z,50386.36
2023-02-15T01:02:33.776Z,50385.16
2023-02-15T01:05:04.120Z,50383.97
2023-02-15T01:07:32.349Z,50390.36
2023-02-15T01:10:01.057Z,50378.37
2023-02-15T01:12:29.352Z,50381.96
2023-02-15T01:14:58.436Z,50374.77
2023-02-15T01:17:27.512Z,50393.16
2023-02-15T01:19:55.773Z,50392.36
2023-02-15T01:22:24.110Z,50371.57
2023-02-15T01:24:53.559Z,50385.96
2023-02-15T01:27:25.574Z,50389.56
2023-02-15T01:29:53.851Z,50395.16
2023-02-15T01:32:24.535Z,50381.57
2023-02-15T01:34:52.837Z,50395.96
2023-02-15T01:37:21.470Z,50395.16
2023-02-15T01:39:49.906Z,50393.96
2023-02-15T01:42:25.184Z,50395.56
2023-02-15T01:44:57.474Z,50401.96
2023-02-15T01:47:58.774Z,50394.36
2023-02-15T01:50:34.732Z,50384.76
2023-02-15T01:53:39.627Z,50375.96
2023-02-15T01:56:31.960Z,50397.56
2023-02-15T01:59:05.040Z,50397.56
2023-02-15T02:01:33.656Z,50392.36
2023-02-15T02:04:10.391Z,50376.77
2023-02-15T02:06:40.365Z,50371.57
2023-02-15T02:09:09.001Z,50380.36
2023-02-15T02:11:37.455Z,50377.96
2023-02-15T02:14:05.669Z,50371.97
2023-02-15T02:16:55.849Z,50386.77
2023-02-15T02:19:58.510Z,50390.76
2023-02-15T02:23:04.519Z,50381.57
2023-02-15T02:26:07.686Z,50382.76
2023-02-15T02:28:50.934Z,50370.37
2023-02-15T02:31:31.302Z,50385.56
2023-02-15T02:34:05.708Z,50387.96
2023-02-15T02:36:56.855Z,50391.16
2023-02-15T02:39:43.951Z,50411.95
2023-02-15T02:42:45.778Z,50381.96
2023-02-15T02:45:25.384Z,50375.97
2023-02-15T02:48:13.610Z,50406.36
2023-02-15T02:50:43.041Z,50389.16
2023-02-15T02:53:12.726Z,50385.96
2023-02-15T02:55:57.230Z,50375.96
2023-02-15T02:58:38.118Z,50394.76
2023-02-15T03:01:51.185Z,50397.56
2023-02-15T03:04:26.116Z,50395.96
2023-02-15T03:07:09.136Z,50404.76
2023-02-15T03:09:43.151Z,50386.76
2023-02-15T03:12:22.225Z,50401.56
2023-02-15T03:14:56.678Z,50405.16
2023-02-15T03:17:28.915Z,50399.56
2023-02-15T03:20:03.232Z,50412.75
2023-02-15T03:22:43.870Z,50388.36
2023-02-15T03:25:26.524Z,50391.96
2023-02-15T03:28:01.012Z,50395.96
2023-02-15T03:30:32.203Z,50419.95
2023-02-15T03:33:04.108Z,50398.76
2023-02-15T03:35:43.187Z,50392.76
2023-02-15T03:38:15.082Z,50390.36
2023-02-15T03:41:07.286Z,50408.76
2023-02-15T03:43:42.210Z,50396.36
2023-02-15T03:46:41.265Z,50395.56
2023-02-15T03:49:20.189Z,50415.15
2023-02-15T03:51:51.447Z,50413.95
2023-02-15T03:54:45.004Z,50386.37
2023-02-15T03:57:38.367Z,50405.16
2023-02-15T04:00:47.408Z,50407.55
2023-02-15T04:03:30.108Z,50401.16
2023-02-15T04:05:59.913Z,50419.95
2023-02-15T04:08:48.354Z,50420.36
2023-02-15T04:11:17.395Z,50408.36
2023-02-15T04:13:45.768Z,50413.16
2023-02-15T04:16:14.130Z,50414.36
2023-02-15T04:19:03.036Z,50399.96
2023-02-15T04:21:51.071Z,50413.55
2023-02-15T04:24:38.452Z,50397.16
2023-02-15T04:27:07.024Z,50397.55
2023-02-15T04:29:35.248Z,50407.16
2023-02-15T04:32:03.736Z,50405.96
2023-02-15T04:34:32.160Z,50412.76
2023-02-15T04:37:00.629Z,50406.36
2023-02-15T04:39:28.879Z,50409.16
2023-02-15T04:41:57.031Z,50426.75
2023-02-15T04:44:25.260Z,50407.16
2023-02-15T04:46:53.931Z,50421.55
2023-02-15T04:49:22.645Z,50419.95
2023-02-15T04:51:50.890Z,50425.96
2023-02-15T04:54:19.152Z,50411.55
2023-02-15T04:56:49.592Z,50416.35
2023-02-15T04:59:17.778Z,50406.36
2023-02-15T05:01:46.136Z,50395.16
2023-02-15T05:04:14.503Z,50431.55
2023-02-15T05:06:42.773Z,50407.55
2023-02-15T05:09:13.151Z,50414.75
2023-02-15T05:11:41.550Z,50421.95
2023-02-15T05:14:10.092Z,50406.76
2023-02-15T05:16:40.803Z,50411.96
2023-02-15T05:21:56.820Z,50410.36
2023-02-15T05:24:45.011Z,50422.76
2023-02-15T05:27:33.081Z,50427.15
2023-02-15T05:30:03.274Z,50407.96
2023-02-15T05:32:34.167Z,50425.95
2023-02-15T05:35:03.912Z,50405.96
2023-02-15T05:37:32.195Z,50405.96
2023-02-15T05:40:00.549Z,50413.55
2023-02-15T05:42:28.732Z,50400.76
2023-02-15T05:44:57.057Z,50405.55
2023-02-15T05:47:25.225Z,50411.15
2023-02-15T05:49:53.596Z,50416.76
2023-02-15T05:52:21.857Z,50411.55
2023-02-15T05:54:50.612Z,50412.36
2023-02-15T05:57:18.959Z,50411.95
2023-02-15T05:59:47.722Z,50398.76
2023-02-15T06:02:16.068Z,50420.75
2023-02-15T06:04:44.304Z,50408.75
2023-02-15T06:07:13.333Z,50410.36
2023-02-15T06:09:42.068Z,50397.96
2023-02-15T06:12:10.354Z,50412.36
2023-02-15T06:14:38.507Z,50409.55
2023-02-15T06:17:07.503Z,50411.96
2023-02-15T06:19:35.780Z,50410.36
2023-02-15T06:22:04.013Z,50419.15
2023-02-15T06:24:32.212Z,50376.37
2023-02-15T06:27:00.324Z,50397.96
2023-02-15T06:29:29.011Z,50407.55
2023-02-15T06:31:58.865Z,50396.76
2023-02-15T06:34:28.805Z,50390.76
2023-02-15T06:36:57.051Z,50403.16
2023-02-15T06:39:25.372Z,50381.96
2023-02-15T06:41:53.700Z,50403.55
2023-02-15T06:44:21.928Z,50393.16
2023-02-15T06:46:50.266Z,50391.16
2023-02-15T06:49:18.395Z,50385.96
2023-02-15T06:51:46.715Z,50373.17
2023-02-15T06:54:16.715Z,50393.16
2023-02-15T06:56:45.000Z,50389.96
2023-02-15T06:59:13.301Z,50379.57
2023-02-15T07:01:41.804Z,50407.96
2023-02-15T07:04:11.853Z,50386.37
2023-02-15T07:06:42.172Z,50377.96
2023-02-15T07:09:12.237Z,50390.77
2023-02-15T07:11:59.391Z,50370.77
2023-02-15T07:14:28.996Z,50378.77
2023-02-15T07:16:57.422Z,50379.96
2023-02-15T07:19:26.218Z,50375.57
2023-02-15T07:21:56.509Z,50377.96
2023-02-15T07:24:24.864Z,50388.36
2023-02-15T07:26:53.824Z,50373.57
2023-02-15T07:29:22.398Z,50365.16
2023-02-15T07:31:51.035Z,50375.97
2023-02-15T07:34:19.920Z,50377.97
2023-02-15T07:36:52.400Z,50361.17
2023-02-15T07:39:22.051Z,50371.57
2023-02-15T07:41:55.276Z,50385.57
2023-02-15T07:44:23.726Z,50386.36
2023-02-15T07:46:54.422Z,50387.96
2023-02-15T07:49:22.929Z,50354.38
2023-02-15T07:51:51.484Z,50372.76
2023-02-15T07:54:19.828Z,50367.57
2023-02-15T07:56:48.180Z,50347.57
2023-02-15T07:59:16.591Z,50357.18
2023-02-15T08:01:44.796Z,50383.56
2023-02-15T08:04:13.185Z,50363.97
2023-02-15T08:06:41.542Z,50363.97
2023-02-15T08:09:10.309Z,50346.77
2023-02-15T08:11:40.931Z,50368.77
2023-02-15T08:14:23.268Z,50369.96
2023-02-15T08:16:57.302Z,50368.37
2023-02-15T08:19:26.718Z,50369.17
2023-02-15T08:22:00.875Z,50371.16
2023-02-15T08:24:31.627Z,50353.17
2023-02-15T08:27:00.587Z,50374.37
2023-02-15T08:29:30.122Z,50362.77
2023-02-15T08:32:03.441Z,50362.37
2023-02-15T08:34:34.652Z,50359.18
2023-02-15T08:37:03.421Z,50372.77
2023-02-15T08:39:31.641Z,50363.97
2023-02-15T08:41:59.931Z,50354.77
2023-02-15T08:44:28.210Z,50351.98
2023-02-15T08:46:58.587Z,50353.98
2023-02-15T08:49:26.808Z,50354.77
2023-02-15T08:51:54.945Z,50356.77
2023-02-15T08:54:23.254Z,50345.98
2023-02-15T08:56:51.591Z,50360.37
2023-02-15T08:59:24.247Z,50366.37
2023-02-15T09:01:59.363Z,50366.77
2023-02-15T09:04:37.723Z,50362.37
2023-02-15T09:07:06.408Z,50368.37
2023-02-15T09:09:35.377Z,50352.38
2023-02-15T09:12:03.913Z,50365.57
2023-02-15T09:14:32.134Z,50336.38
2023-02-15T09:17:00.430Z,50370.77
2023-02-15T09:19:28.624Z,50361.97
2023-02-15T09:21:57.996Z,50367.17
2023-02-15T09:24:26.247Z,50345.58
2023-02-15T09:26:54.495Z,50350.77
2023-02-15T09:29:23.912Z,50363.97
2023-02-15T09:31:52.674Z,50332.38
2023-02-15T09:34:23.251Z,50342.78
2023-02-15T09:36:52.223Z,50347.57
2023-02-15T09:39:25.902Z,50351.18
2023-02-15T09:41:57.117Z,50333.98
2023-02-15T09:44:28.378Z,50361.57
2023-02-15T09:47:32.467Z,50341.18
2023-02-15T09:50:36.338Z,50349.97
2023-02-15T09:53:29.970Z,50356.77
2023-02-15T09:56:21.285Z,50344.77
2023-02-15T09:59:14.653Z,50349.98
2023-02-15T10:02:04.213Z,50338.38
2023-02-15T10:05:06.964Z,50347.98
2023-02-15T10:07:56.445Z,50339.58
2023-02-15T10:11:28.392Z,50337.57
2023-02-15T10:14:25.426Z,50345.58
2023-02-15T10:16:57.358Z,50333.18
2023-02-15T10:19:41.480Z,50333.18
2023-02-15T10:22:42.851Z,50325.58
2023-02-15T10:25:32.547Z,50322.38
2023-02-15T10:28:07.490Z,50337.98
2023-02-15T10:30:38.891Z,50336.38
2023-02-15T10:33:40.327Z,50332.38
2023-02-15T10:36:18.751Z,50333.98
2023-02-15T10:39:00.022Z,50328.38
2023-02-15T10:41:35.516Z,50323.59
2023-02-15T10:44:37.898Z,50335.18
2023-02-15T10:47:29.167Z,50353.18
2023-02-15T10:50:20.851Z,50324.38
2023-02-15T10:52:56.927Z,50341.18
2023-02-15T10:55:44.316Z,50334.78
2023-02-15T10:58:36.208Z,50333.98
2023-02-15T11:01:09.617Z,50336.77
2023-02-15T11:03:57.941Z,50332.38
2023-02-15T11:06:28.469Z,50321.58
2023-02-15T11:09:10.812Z,50328.78
2023-02-15T11:11:43.667Z,50334.78
2023-02-15T11:14:32.314Z,50313.19
2023-02-15T11:17:08.363Z,50331.18
2023-02-15T11:20:06.944Z,50348.38
2023-02-15T11:22:36.086Z,50332.78
2023-02-15T11:25:20.921Z,50337.58
2023-02-15T11:27:50.965Z,50342.77
2023-02-15T11:30:22.992Z,50321.98
2023-02-15T11:32:55.941Z,50331.58
2023-02-15T11:35:35.224Z,50333.18
2023-02-15T11:38:24.761Z,50335.98
2023-02-15T11:40:59.943Z,50313.99
2023-02-15T11:43:44.647Z,50328.38
2023-02-15T11:46:14.451Z,50320.38
2023-02-15T11:48:43.793Z,50327.58
2023-02-15T11:51:24.378Z,50326.38
2023-02-15T11:53:53.130Z,50334.77
2023-02-15T11:56:25.026Z,50339.58
2023-02-15T11:59:12.195Z,50318.79
2023-02-15T12:01:48.216Z,50333.98
2023-02-15T12:04:39.894Z,50327.18
2023-02-15T12:07:23.793Z,50333.18
2023-02-15T12:09:58.557Z,50330.38
2023-02-15T12:12:34.344Z,50325.98
2023-02-15T12:15:11.918Z,50334.78
2023-02-15T12:17:49.348Z,50337.18
2023-02-15T12:20:17.998Z,50330.38
2023-02-15T12:22:54.374Z,50339.18
2023-02-15T12:25:26.630Z,50329.98
2023-02-15T12:27:56.038Z,50325.98
2023-02-15T12:30:35.976Z,50348.38
2023-02-15T12:33:25.626Z,50338.38
2023-02-15T12:36:12.446Z,50320.79
2023-02-15T12:38:41.209Z,50329.58
2023-02-15T12:41:27.528Z,50331.58
2023-02-15T12:44:16.888Z,50331.18
2023-02-15T12:46:58.848Z,50323.98
2023-02-15T12:49:32.826Z,50336.78
2023-02-15T12:52:04.755Z,50333.18
2023-02-15T12:54:39.651Z,50328.38
2023-02-15T12:57:22.404Z,50343.57
2023-02-15T12:59:52.622Z,50347.57
2023-02-15T13:02:47.251Z,50322.38
2023-02-15T13:05:27.251Z,50335.98
2023-02-15T13:07:59.513Z,50339.57
2023-02-15T13:10:28.664Z,50321.98
2023-02-15T13:12:59.023Z,50352.37
2023-02-15T13:15:48.301Z,50335.98
2023-02-15T13:18:30.507Z,50328.78
2023-02-15T13:21:16.865Z,50327.98
2023-02-15T13:24:07.474Z,50335.98
2023-02-15T13:26:37.284Z,50326.38
2023-02-15T13:29:24.363Z,50333.18
2023-02-15T13:31:56.470Z,50324.78
2023-02-15T13:34:29.553Z,50325.58
2023-02-15T13:37:10.264Z,50325.98
2023-02-15T13:40:08.338Z,50341.57
2023-02-15T13:42:43.212Z,50329.18
2023-02-15T13:45:32.774Z,50329.98
2023-02-15T13:48:06.124Z,50330.78
2023-02-15T13:50:58.456Z,50334.38
2023-02-15T13:53:41.773Z,50340.38
2023-02-15T13:56:33.665Z,50331.58
2023-02-15T13:59:20.245Z,50323.98
2023-02-15T14:01:56.802Z,50320.78
2023-02-15T14:04:40.540Z,50319.98
2023-02-15T14:07:37.056Z,50333.18
2023-02-15T14:10:49.948Z,50333.59
2023-02-15T14:13:42.450Z,50327.58
2023-02-15T14:17:06.106Z,50326.78
2023-02-15T14:19:51.024Z,50340.77
2023-02-15T14:22:38.162Z,50321.98
2023-02-15T14:25:31.264Z,50340.38
2023-02-15T14:28:02.614Z,50336.38
2023-02-15T14:30:37.650Z,50324.78
2023-02-15T14:33:26.784Z,50333.18
2023-02-15T14:35:56.200Z,50335.58
2023-02-15T14:38:39.607Z,50316.78
2023-02-15T14:41:30.288Z,50334.78
2023-02-15T14:44:13.799Z,50349.18
2023-02-15T14:46:54.519Z,50343.98
2023-02-15T14:49:35.026Z,50343.98
2023-02-15T14:52:09.639Z,50330.38
2023-02-15T14:54:37.845Z,50337.98
2023-02-15T14:57:07.831Z,50326.38
2023-02-15T15:00:04.700Z,50347.18
2023-02-15T15:02:45.477Z,50346.77
2023-02-15T15:05:47.418Z,50342.78
2023-02-15T15:08:27.920Z,50345.98
2023-02-15T15:10:57.469Z,50322.38
2023-02-15T15:13:32.804Z,50335.58
2023-02-15T15:16:31.338Z,50350.38
2023-02-15T15:19:02.542Z,50361.98
2023-02-15T15:21:49.500Z,50343.57
2023-02-15T15:24:39.575Z,50342.77
2023-02-15T15:27:39.076Z,50353.98
2023-02-15T15:30:17.286Z,50358.37
2023-02-15T15:32:57.912Z,50359.98
2023-02-15T15:36:00.495Z,50357.57
2023-02-15T15:39:05.546Z,50375.97
2023-02-15T15:41:56.490Z,50380.36
2023-02-15T15:44:49.671Z,50356.38
2023-02-15T15:47:38.716Z,50367.57
2023-02-15T15:50:18.937Z,50374.37
2023-02-15T15:52:54.011Z,50354.38
2023-02-15T15:55:25.734Z,50363.17
2023-02-15T15:57:58.234Z,50375.97
2023-02-15T16:00:35.927Z,50380.77
2023-02-15T16:03:15.309Z,50353.18
2023-02-15T16:05:43.636Z,50370.77
2023-02-15T16:08:14.386Z,50375.17
2023-02-15T16:10:42.952Z,50363.57
2023-02-15T16:13:15.630Z,50374.37
2023-02-15T16:15:53.998Z,50375.16
2023-02-15T16:18:28.685Z,50361.57
2023-02-15T16:21:00.877Z,50359.18
2023-02-15T16:24:03.479Z,50364.77
2023-02-15T16:26:49.983Z,50366.77
2023-02-15T16:29:27.398Z,50374.37
2023-02-15T16:32:06.695Z,50369.17
2023-02-15T16:34:35.050Z,50371.16
2023-02-15T16:37:22.985Z,50377.57
2023-02-15T16:39:52.278Z,50386.76
2023-02-15T16:42:21.052Z,50381.16
2023-02-15T16:44:59.476Z,50358.77
2023-02-15T16:47:31.605Z,50379.96
2023-02-15T16:50:03.615Z,50379.16
2023-02-15T16:52:32.719Z,50378.36
2023-02-15T16:55:04.774Z,50369.57
2023-02-15T16:57:43.966Z,50387.56
2023-02-15T17:00:24.226Z,50371.57
2023-02-15T17:03:15.627Z,50406.36
2023-02-15T17:05:49.930Z,50369.97
2023-02-15T17:08:18.209Z,50375.96
2023-02-15T17:11:04.655Z,50380.36
2023-02-15T17:13:34.074Z,50384.76
2023-02-15T17:16:03.728Z,50383.56
2023-02-15T17:18:45.784Z,50369.17
2023-02-15T17:21:26.345Z,50389.16
2023-02-15T17:24:01.344Z,50396.36
2023-02-15T17:26:39.332Z,50397.96
2023-02-15T17:29:22.533Z,50388.76
2023-02-15T17:31:53.564Z,50371.57
2023-02-15T17:34:45.637Z,50401.56
2023-02-15T17:37:25.004Z,50380.37
2023-02-15T17:39:55.594Z,50393.56
2023-02-15T17:42:24.215Z,50385.16
2023-02-15T17:44:52.869Z,50385.16
2023-02-15T17:47:25.749Z,50385.57
2023-02-15T17:49:56.764Z,50387.57
2023-02-15T17:52:29.349Z,50406.76
2023-02-15T17:55:19.313Z,50373.16
2023-02-15T17:57:48.952Z,50393.96
2023-02-15T18:00:37.494Z,50389.57
2023-02-15T18:03:29.973Z,50385.57
2023-02-15T18:06:17.764Z,50390.36
2023-02-15T18:09:05.800Z,50376.77
2023-02-15T18:11:36.146Z,50400.36
2023-02-15T18:14:08.636Z,50379.57
2023-02-15T18:16:43.930Z,50390.36
2023-02-15T18:19:17.998Z,50376.37
2023-02-15T18:21:52.881Z,50403.96
2023-02-15T18:24:31.968Z,50389.96
2023-02-15T18:27:10.516Z,50391.16
2023-02-15T18:29:49.134Z,50400.36
2023-02-15T18:32:38.690Z,50389.56
2023-02-15T18:35:10.431Z,50380.77
2023-02-15T18:37:38.789Z,50383.17
2023-02-15T18:40:25.952Z,50393.56
2023-02-15T18:42:57.905Z,50405.16
2023-02-15T18:45:33.661Z,50397.56
2023-02-15T18:48:06.244Z,50412.36
2023-02-15T18:50:35.871Z,50404.76
2023-02-15T18:53:07.533Z,50392.36
2023-02-15T18:55:36.895Z,50393.96
2023-02-15T18:58:05.375Z,50384.37
2023-02-15T19:00:35.412Z,50404.36
2023-02-15T19:03:04.625Z,50387.16
2023-02-15T19:05:33.903Z,50401.16
2023-02-15T19:08:03.608Z,50393.96
2023-02-15T19:10:34.084Z,50387.56
2023-02-15T19:13:03.812Z,50399.96
2023-02-15T19:15:32.200Z,50382.36
2023-02-15T19:18:01.562Z,50403.55
2023-02-15T19:20:40.056Z,50393.16
2023-02-15T19:23:15.868Z,50393.56
2023-02-15T19:25:44.168Z,50391.56
2023-02-15T19:28:20.089Z,50409.16
2023-02-15T19:30:48.544Z,50391.96
2023-02-15T19:33:20.553Z,50397.56
2023-02-15T19:35:54.262Z,50405.16
2023-02-15T19:38:26.962Z,50386.76
2023-02-15T19:41:01.175Z,50386.76
2023-02-15T19:43:30.363Z,50404.76
2023-02-15T19:45:58.701Z,50386.37
2023-02-15T19:48:27.140Z,50392.76
2023-02-15T19:50:58.618Z,50393.16
2023-02-15T19:53:29.280Z,50401.56
2023-02-15T19:55:57.606Z,50396.76
2023-02-15T19:58:27.585Z,50422.35
2023-02-15T20:00:56.757Z,50417.15
2023-02-15T20:03:25.083Z,50396.76
2023-02-15T20:05:53.396Z,50395.56
2023-02-15T20:08:23.531Z,50404.36
2023-02-15T20:10:52.537Z,50397.16
2023-02-15T20:13:21.160Z,50395.96
2023-02-15T20:15:50.928Z,50403.56
2023-02-15T20:18:22.085Z,50403.96
2023-02-15T20:20:55.187Z,50400.76
2023-02-15T20:23:32.149Z,50393.96
2023-02-15T20:26:05.711Z,50387.56
2023-02-15T20:28:33.962Z,50411.96
2023-02-15T20:31:02.809Z,50390.76
2023-02-15T20:33:31.684Z,50416.36
2023-02-15T20:36:00.059Z,50407.55
2023-02-15T20:38:31.226Z,50393.16
2023-02-15T20:41:20.188Z,50413.95
2023-02-15T20:43:48.780Z,50406.76
2023-02-15T20:46:16.993Z,50408.76
2023-02-15T20:48:46.125Z,50411.15
2023-02-15T20:51:19.399Z,50411.96
2023-02-15T20:53:49.707Z,50405.56
2023-02-15T20:56:23.400Z,50411.96
2023-02-15T20:58:53.002Z,50403.16
2023-02-15T21:01:21.674Z,50404.76
2023-02-15T21:03:50.124Z,50380.36
2023-02-15T21:06:19.400Z,50405.16
2023-02-15T21:08:47.671Z,50404.36
2023-02-15T21:11:21.459Z,50419.55
2023-02-15T21:13:52.182Z,50405.55
2023-02-15T21:16:20.414Z,50409.55
2023-02-15T21:18:48.883Z,50405.96
2023-02-15T21:21:23.729Z,50423.96
2023-02-15T21:23:53.342Z,50437.95
2023-02-15T21:26:26.209Z,50406.36
2023-02-15T21:28:55.285Z,50410.76
2023-02-15T21:31:25.928Z,50405.56
2023-02-15T21:33:54.266Z,50414.76
2023-02-15T21:36:24.430Z,50405.16
2023-02-15T21:38:56.238Z,50414.36
2023-02-15T21:41:45.216Z,50421.95
2023-02-15T21:44:35.775Z,50415.16
2023-02-15T21:47:23.224Z,50416.36
2023-02-15T21:49:51.485Z,50425.95
2023-02-15T21:52:23.773Z,50407.55
2023-02-15T21:54:52.475Z,50395.16
2023-02-15T21:57:22.408Z,50414.75
2023-02-15T21:59:50.949Z,50423.95
2023-02-15T22:02:29.522Z,50407.16
2023-02-15T22:04:59.444Z,50422.35
2023-02-15T22:07:27.659Z,50419.95
2023-02-15T22:09:55.882Z,50421.95
2023-02-15T22:12:24.206Z,50400.76
2023-02-15T22:14:56.712Z,50421.95
2023-02-15T22:17:29.205Z,50421.15
2023-02-15T22:19:58.149Z,50419.55
2023-02-15T22:22:27.207Z,50422.75
2023-02-15T22:25:04.852Z,50414.76
2023-02-15T22:27:39.804Z,50415.55
2023-02-15T22:30:26.375Z,50417.96
2023-02-15T22:32:56.977Z,50414.75
2023-02-15T22:35:26.860Z,50431.95
2023-02-15T22:37:56.335Z,50421.16
2023-02-15T22:40:29.364Z,50420.75
2023-02-15T22:43:00.208Z,50427.55
2023-02-15T22:45:28.627Z,50415.96
2023-02-15T22:48:00.560Z,50405.96
2023-02-15T22:50:32.308Z,50426.75
2023-02-15T22:53:02.424Z,50422.35
2023-02-15T22:55:36.582Z,50408.36
2023-02-15T22:58:06.222Z,50426.35
2023-02-15T23:00:39.647Z,50426.35
2023-02-15T23:03:20.619Z,50423.15
2023-02-15T23:05:49.729Z,50415.95
2023-02-15T23:08:18.195Z,50411.95
2023-02-15T23:10:58.094Z,50419.55
2023-02-15T23:13:32.853Z,50414.76
2023-02-15T23:16:03.980Z,50411.96
2023-02-15T23:18:33.594Z,50425.55
2023-02-15T23:21:16.467Z,50434.75
2023-02-15T23:23:46.974Z,50436.75
2023-02-15T23:26:18.256Z,50433.95
2023-02-15T23:28:47.399Z,50434.35
2023-02-15T23:31:23.394Z,50424.35
2023-02-15T23:33:53.050Z,50434.35
2023-02-15T23:36:24.678Z,50420.36
2023-02-15T23:38:54.612Z,50438.35
2023-02-15T23:41:26.937Z,50427.55
2023-02-15T23:44:03.605Z,50430.75
2023-02-15T23:46:45.053Z,50431.55
2023-02-15T23:49:17.267Z,50421.96
2023-02-15T23:51:51.531Z,50427.55
2023-02-15T23:54:22.307Z,50430.35
2023-02-15T23:56:57.676Z,50418.36
2023-02-15T23:59:28.602Z,50432.75
